Aviation Digital Data Service (ADDS)

Output produced by METARs form (1632 UTC 19 October 2017)
found at http://aviationweather.gov/adds/metars/
 
METAR text: KHDN 191556Z AUTO 10007KT 10SM CLR 08/M08 A3017 RMK AO2 SLP191 T00831078
Conditions at: KHDN (HAYDEN/YAMPA , CO, US) observed 1556 UTC 19 October 2017
Temperature: 8.3°C (47°F)
Dewpoint: -7.8°C (18°F) [RH = 31%]
Pressure (altimeter): 30.17 inches Hg (1021.8 mb)
[Sea-level pressure: 1019.1 mb]
Winds: from the E (100 degrees) at 8 MPH (7 knots; 3.6 m/s)
Visibility: 10 or more miles (16+ km)
Ceiling: at least 12,000 feet AGL
Clouds: sky clear below 12,000 feet AGL
Weather: automated observation with no human augmentation;
there may or may not be significant weather present at this time